Time;durP1;ratioP1;P1;durP2;ratioP2;P2;SDS_P1;SDS_P2;PMS_P1;PMS_P2;Temp;Humidity;BMP_temperature;BMP_pressure;BME280_temperature;BME280_humidity;BME280_pressure;Samples;Min_cycle;Max_cycle;Signal;HPM_P1;HPM_P2
2022/11/01 00:01:56;;;;;;;15.30;7.78;;;;;;;14.60;98.07;100846.81;5092502;28;20039;-71
2022/11/01 00:04:22;;;;;;;17.67;6.63;;;;;;;14.59;97.84;100845.16;5078930;28;20023;-71
2022/11/01 00:06:48;;;;;;;23.87;7.70;;;;;;;14.65;97.67;100844.25;5107682;28;20122;-72
2022/11/01 00:09:14;;;;;;;14.43;7.00;;;;;;;14.69;96.97;100849.13;5097771;28;20486;-71
2022/11/01 00:11:39;;;;;;;23.23;7.23;;;;;;;14.66;97.44;100854.19;5090230;28;20122;-71
2022/11/01 00:14:05;;;;;;;15.17;6.20;;;;;;;14.68;97.05;100852.09;5073332;28;20027;-72
2022/11/01 00:16:31;;;;;;;19.57;7.77;;;;;;;14.75;96.92;100855.63;5090559;28;20034;-71
2022/11/01 00:18:56;;;;;;;20.50;6.53;;;;;;;14.72;97.26;100843.13;5091384;28;20252;-71
2022/11/01 00:21:22;;;;;;;21.50;7.17;;;;;;;14.72;97.09;100845.06;5109498;28;20139;-70
2022/11/01 00:23:47;;;;;;;12.57;7.13;;;;;;;14.81;96.57;100846.44;5108859;28;20039;-70
2022/11/01 00:26:19;;;;;;;17.63;6.43;;;;;;;14.71;97.39;100835.06;5098490;28;20497;-70
2022/11/01 00:28:45;;;;;;;17.65;6.90;;;;;;;14.81;96.73;100828.00;5106993;28;20031;-71
2022/11/01 00:31:11;;;;;;;14.83;7.53;;;;;;;14.87;96.36;100832.63;5090608;28;20550;-71
2022/11/01 00:33:38;;;;;;;17.92;6.80;;;;;;;14.94;95.79;100832.56;5080526;28;20060;-70
2022/11/01 00:36:04;;;;;;;16.75;6.13;;;;;;;14.96;95.99;100824.91;5089686;28;20446;-71
2022/11/01 00:38:29;;;;;;;25.23;7.25;;;;;;;14.86;96.36;100824.56;5108416;28;20035;-71
2022/11/01 00:40:55;;;;;;;17.30;6.67;;;;;;;14.90;96.57;100814.78;5101680;28;20095;-71
2022/11/01 00:43:21;;;;;;;21.27;7.73;;;;;;;14.95;96.27;100821.28;5087718;28;20068;-71
2022/11/01 00:45:46;;;;;;;14.07;6.37;;;;;;;14.91;96.85;100813.69;5100475;28;20031;-70
2022/11/01 00:48:12;;;;;;;18.63;6.73;;;;;;;14.87;97.18;100816.06;5107534;28;20059;-71
2022/11/01 00:50:38;;;;;;;22.60;6.77;;;;;;;14.90;97.24;100818.34;5093944;28;20406;-71
2022/11/01 00:53:04;;;;;;;19.30;7.07;;;;;;;14.94;97.01;100814.09;5090394;28;20028;-71
2022/11/01 00:55:29;;;;;;;16.63;6.30;;;;;;;14.88;97.59;100812.22;5096725;28;20028;-70
2022/11/01 00:57:54;;;;;;;21.43;6.83;;;;;;;15.00;97.21;100821.44;5105645;28;20363;-70
2022/11/01 01:00:20;;;;;;;21.53;6.17;;;;;;;14.97;97.29;100821.06;5107320;28;20019;-71
2022/11/01 01:02:45;;;;;;;13.67;5.73;;;;;;;15.04;97.27;100814.41;5096953;28;20024;-70
2022/11/01 01:05:11;;;;;;;16.97;6.47;;;;;;;15.09;97.03;100809.06;5090684;28;20039;-70
2022/11/01 01:07:36;;;;;;;12.00;6.60;;;;;;;15.09;97.30;100811.81;5102218;28;20035;-71
2022/11/01 01:10:04;;;;;;;16.43;6.40;;;;;;;15.03;97.72;100815.50;5088348;28;20028;-70
2022/11/01 01:12:30;;;;;;;16.40;5.57;;;;;;;15.10;97.77;100807.97;5071301;28;20436;-71
2022/11/01 01:14:55;;;;;;;15.73;6.00;;;;;;;15.09;97.60;100805.44;5094173;28;20043;-71
2022/11/01 01:17:20;;;;;;;24.67;6.27;;;;;;;15.15;97.56;100810.09;5091446;28;20063;-71
2022/11/01 01:19:46;;;;;;;18.30;5.80;;;;;;;15.21;97.58;100800.88;5106144;28;20050;-71
2022/11/01 01:22:11;;;;;;;20.17;7.30;;;;;;;15.23;97.54;100799.59;5088478;28;20035;-71
2022/11/01 01:24:37;;;;;;;13.80;5.10;;;;;;;15.17;98.01;100799.66;5104384;28;20110;-71
2022/11/01 01:27:03;;;;;;;12.80;5.75;;;;;;;15.25;97.77;100794.66;5083005;28;20032;-71
2022/11/01 01:29:28;;;;;;;17.47;5.93;;;;;;;15.27;97.94;100792.50;5103905;28;20054;-71
2022/11/01 01:31:54;;;;;;;14.83;6.07;;;;;;;15.37;97.65;100795.63;5097499;28;20027;-71
2022/11/01 01:34:19;;;;;;;15.50;5.73;;;;;;;15.39;97.68;100798.16;5100533;28;20038;-71
2022/11/01 01:36:46;;;;;;;10.03;6.10;;;;;;;15.42;97.75;100793.03;5100656;28;20024;-71
2022/11/01 01:39:11;;;;;;;15.77;5.03;;;;;;;15.52;97.46;100792.50;5098208;28;20028;-71
2022/11/01 01:41:55;;;;;;;19.87;5.90;;;;;;;15.61;97.11;100791.09;5098253;28;20430;-71
2022/11/01 01:45:02;;;;;;;15.50;5.47;;;;;;;15.72;96.37;100791.16;5092026;28;20047;-70
2022/11/01 01:47:36;;;;;;;15.10;5.72;;;;;;;15.81;95.77;100798.06;5086264;28;20415;-71
2022/11/01 01:50:25;;;;;;;16.05;5.38;;;;;;;15.87;95.74;100801.81;5095228;28;20027;-70
2022/11/01 01:53:03;;;;;;;17.65;5.20;;;;;;;15.76;96.37;100789.66;5107607;28;20450;-71
2022/11/01 01:55:46;;;;;;;9.95;5.20;;;;;;;15.78;96.41;100793.00;5096496;28;20086;-71
2022/11/01 01:58:13;;;;;;;20.17;5.85;;;;;;;15.79;96.20;100791.09;5105585;28;20471;-71
2022/11/01 02:00:42;;;;;;;12.07;5.07;;;;;;;15.86;95.99;100786.31;5097807;28;20028;-71
2022/11/01 02:03:07;;;;;;;16.27;5.32;;;;;;;15.89;95.57;100778.41;5084002;28;20043;-71
2022/11/01 02:05:43;;;;;;;13.87;4.60;;;;;;;15.86;95.78;100783.56;5101069;28;20036;-71
2022/11/01 02:08:10;;;;;;;13.32;5.00;;;;;;;15.86;95.57;100797.38;5098665;28;20039;-71
2022/11/01 02:10:36;;;;;;;12.70;5.00;;;;;;;15.92;95.37;100799.19;5110022;28;20058;-70
2022/11/01 02:13:01;;;;;;;21.23;5.77;;;;;;;15.87;95.56;100797.16;5096216;28;20063;-71
2022/11/01 02:15:39;;;;;;;13.83;5.27;;;;;;;15.97;94.42;100814.00;5097438;28;20101;-71
2022/11/01 02:18:17;;;;;;;11.93;4.70;;;;;;;15.99;93.82;100802.69;5105232;28;20423;-71
2022/11/01 02:21:06;;;;;;;11.35;4.30;;;;;;;16.09;93.08;100811.28;5077971;28;20538;-71
2022/11/01 02:23:50;;;;;;;14.18;4.13;;;;;;;16.09;92.21;100819.56;5108132;28;20028;-71
2022/11/01 02:26:38;;;;;;;15.07;4.55;;;;;;;16.14;91.30;100808.66;5107736;28;20023;-70
2022/11/01 02:29:24;;;;;;;13.63;4.68;;;;;;;16.04;91.83;100817.53;5055636;28;20069;-71
2022/11/01 02:32:25;;;;;;;20.92;4.32;;;;;;;16.03;92.17;100824.13;5091514;28;20169;-71
2022/11/01 02:35:02;;;;;;;9.13;4.43;;;;;;;16.09;91.65;100825.09;5053109;28;20044;-71
2022/11/01 02:37:47;;;;;;;10.75;4.35;;;;;;;16.07;91.78;100836.38;5083269;28;20039;-71
2022/11/01 02:40:20;;;;;;;10.80;4.43;;;;;;;15.95;91.92;100829.97;5095218;28;20076;-71
2022/11/01 02:42:50;;;;;;;20.98;4.25;;;;;;;15.98;91.37;100837.81;5083047;28;20027;-71
2022/11/01 02:45:27;;;;;;;12.43;4.38;;;;;;;15.92;90.24;100847.03;5091145;28;20077;-70
2022/11/01 02:47:57;;;;;;;9.95;3.05;;;;;;;15.94;87.45;100852.28;5105601;28;20054;-71
2022/11/01 02:50:26;;;;;;;11.30;3.20;;;;;;;15.94;85.76;100857.81;5103191;28;20036;-71
2022/11/01 02:52:53;;;;;;;5.50;2.50;;;;;;;15.86;85.24;100866.44;5086317;28;20031;-70
2022/11/01 02:55:30;;;;;;;6.18;2.45;;;;;;;15.77;85.57;100867.81;5099181;28;20112;-70
2022/11/01 02:58:00;;;;;;;3.67;2.10;;;;;;;15.68;85.98;100880.25;5094071;28;20023;-71
2022/11/01 03:00:34;;;;;;;10.85;3.00;;;;;;;15.52;86.78;100878.09;5097339;28;20026;-71
2022/11/01 03:03:17;;;;;;;3.92;2.40;;;;;;;15.43;87.08;100883.03;5088838;28;20047;-71
2022/11/01 03:06:07;;;;;;;18.00;2.90;;;;;;;15.44;87.34;100893.03;5103721;28;20028;-70
2022/11/01 03:08:47;;;;;;;8.65;2.55;;;;;;;15.35;87.87;100904.56;5111182;28;20154;-70
2022/11/01 03:11:19;;;;;;;10.52;2.65;;;;;;;15.25;87.06;100902.31;5094691;28;20107;-70
2022/11/01 03:13:53;;;;;;;4.93;1.50;;;;;;;15.21;85.50;100908.50;5096562;28;20461;-70
2022/11/01 03:16:27;;;;;;;3.78;1.88;;;;;;;15.10;84.24;100912.00;5091758;28;20063;-70
2022/11/01 03:19:20;;;;;;;2.03;1.35;;;;;;;14.98;83.81;100913.78;5091558;28;20122;-70
2022/11/01 03:22:01;;;;;;;2.10;1.50;;;;;;;14.89;83.64;100915.16;5092329;28;20108;-70
2022/11/01 03:24:43;;;;;;;6.35;1.70;;;;;;;14.80;83.67;100936.63;5103879;28;20039;-69
2022/11/01 03:27:10;;;;;;;10.77;1.48;;;;;;;14.69;84.13;100925.47;5092398;28;20028;-69
2022/11/01 03:29:38;;;;;;;5.70;1.40;;;;;;;14.65;83.38;100929.72;5107280;28;20020;-69
2022/11/01 03:32:06;;;;;;;1.98;1.30;;;;;;;14.61;83.83;100940.34;5081735;28;20047;-70
2022/11/01 03:34:35;;;;;;;4.75;1.00;;;;;;;14.55;83.85;100944.00;5106087;28;20028;-70
2022/11/01 03:37:05;;;;;;;5.30;1.20;;;;;;;14.42;85.47;100940.47;5073313;28;20070;-70
2022/11/01 03:39:39;;;;;;;5.18;1.20;;;;;;;14.40;84.89;100954.47;5095899;28;20020;-70
2022/11/01 03:42:10;;;;;;;1.88;1.10;;;;;;;14.46;83.97;100947.25;5092232;28;20033;-70
2022/11/01 03:44:40;;;;;;;6.22;1.30;;;;;;;14.36;84.45;100955.94;5094975;28;20027;-70
2022/11/01 03:47:06;;;;;;;3.78;1.02;;;;;;;14.39;83.54;100960.19;5099638;28;20055;-70
2022/11/01 03:49:32;;;;;;;3.17;1.20;;;;;;;14.41;83.47;100978.19;5093324;28;20108;-70
2022/11/01 03:51:57;;;;;;;3.00;1.57;;;;;;;14.39;82.66;100976.72;5092013;28;20329;-70
2022/11/01 03:54:22;;;;;;;8.17;2.00;;;;;;;14.39;82.71;100983.09;5100192;28;20038;-70
2022/11/01 03:56:48;;;;;;;6.60;1.30;;;;;;;14.32;82.32;100984.19;5095131;28;20098;-70
2022/11/01 03:59:13;;;;;;;10.80;1.37;;;;;;;14.30;81.26;101005.59;5102495;28;20053;-69
2022/11/01 04:01:38;;;;;;;5.73;1.73;;;;;;;14.27;81.37;101000.53;5101847;28;20379;-70
2022/11/01 04:04:04;;;;;;;8.37;1.80;;;;;;;14.18;81.76;100993.50;5094417;28;20039;-70
2022/11/01 04:06:29;;;;;;;6.47;1.43;;;;;;;14.15;82.09;101007.75;5094525;28;20078;-70
2022/11/01 04:08:54;;;;;;;4.47;1.30;;;;;;;14.10;82.49;101013.06;5106349;28;20035;-71
2022/11/01 04:11:20;;;;;;;2.27;1.23;;;;;;;14.12;81.12;101024.69;5109300;28;20109;-70
2022/11/01 04:13:46;;;;;;;3.73;1.30;;;;;;;14.07;80.49;101030.00;5102689;28;20032;-71
2022/11/01 04:21:39;;;;;;;4.40;1.42;;;;;;;14.13;77.77;101063.03;5096487;28;20031;-70
2022/11/01 04:24:05;;;;;;;8.52;1.17;;;;;;;14.11;76.84;101072.59;5094545;28;20494;-70
2022/11/01 04:26:31;;;;;;;10.27;1.87;;;;;;;14.14;76.85;101061.16;5091380;28;20036;-70
2022/11/01 04:28:56;;;;;;;6.00;1.40;;;;;;;14.04;77.14;101060.75;5094999;28;20303;-70
2022/11/01 04:31:24;;;;;;;14.13;1.83;;;;;;;13.95;77.91;101040.84;5075756;28;20122;-70
2022/11/01 04:33:50;;;;;;;10.57;1.48;;;;;;;13.86;78.33;101061.41;5109520;28;20032;-70
2022/11/01 04:36:15;;;;;;;7.37;1.50;;;;;;;13.77;78.62;101067.34;5081791;28;20055;-70
2022/11/01 04:38:40;;;;;;;8.03;1.60;;;;;;;13.74;79.55;101067.75;5097012;28;20035;-70
2022/11/01 04:41:05;;;;;;;5.93;1.43;;;;;;;13.64;79.60;101068.19;5101182;28;20049;-70
2022/11/01 04:43:31;;;;;;;10.50;2.10;;;;;;;13.57;79.31;101063.75;5105963;28;20042;-70
2022/11/01 04:45:57;;;;;;;14.37;1.83;;;;;;;13.59;78.47;101078.13;5090043;28;20114;-69
2022/11/01 04:48:22;;;;;;;11.70;2.50;;;;;;;13.49;77.39;101056.53;5104378;28;20106;-70
2022/11/01 04:50:48;;;;;;;8.80;2.03;;;;;;;13.43;77.60;101057.38;5094430;28;20067;-70
2022/11/01 04:53:13;;;;;;;12.20;1.43;;;;;;;13.43;76.36;101057.38;5096215;28;20035;-70
2022/11/01 04:55:39;;;;;;;3.63;1.63;;;;;;;13.35;76.58;101076.00;5098847;28;20457;-70
2022/11/01 04:58:05;;;;;;;10.63;1.97;;;;;;;13.31;76.12;101061.81;5095896;28;20067;-70
2022/11/01 05:00:32;;;;;;;13.88;2.85;;;;;;;13.42;74.58;101074.09;5096800;28;20020;-70
2022/11/01 05:03:05;;;;;;;7.43;1.60;;;;;;;13.38;74.42;101070.06;5096878;28;20054;-69
2022/11/01 05:05:31;;;;;;;13.40;1.98;;;;;;;13.33;74.96;101078.09;5104562;28;20435;-70
2022/11/01 05:08:22;;;;;;;11.13;2.33;;;;;;;13.24;75.06;101082.13;5099856;28;20137;-70
2022/11/01 05:10:52;;;;;;;10.48;1.58;;;;;;;13.19;74.34;101081.91;5095173;28;20101;-70
2022/11/01 05:13:17;;;;;;;11.27;2.65;;;;;;;13.12;74.58;101079.13;5107442;28;21218;-69
2022/11/01 05:15:42;;;;;;;8.57;1.87;;;;;;;13.18;74.23;101074.72;5098866;28;20028;-70
2022/11/01 05:18:08;;;;;;;13.97;2.27;;;;;;;13.14;73.97;101073.41;5102516;28;20027;-71
2022/11/01 05:20:33;;;;;;;11.63;2.20;;;;;;;13.13;73.19;101082.72;5094577;28;20020;-71
2022/11/01 05:23:00;;;;;;;9.63;1.80;;;;;;;13.18;73.60;101080.22;5108713;28;20034;-70
2022/11/01 05:25:27;;;;;;;11.82;3.13;;;;;;;13.28;73.75;101080.66;5099846;28;20114;-71
2022/11/01 05:28:01;;;;;;;19.95;2.25;;;;;;;13.29;73.94;101088.69;5096902;28;20046;-71
2022/11/01 05:30:26;;;;;;;6.40;1.50;;;;;;;13.22;74.45;101098.81;5109052;28;20097;-71
2022/11/01 05:32:56;;;;;;;8.60;2.10;;;;;;;13.21;75.15;101099.03;5105171;28;20432;-69
2022/11/01 05:35:22;;;;;;;14.30;2.03;;;;;;;13.27;75.44;101100.94;5110600;28;20023;-71
2022/11/01 05:37:47;;;;;;;11.30;3.63;;;;;;;13.27;75.35;101099.06;5104855;28;20096;-70
2022/11/01 05:40:12;;;;;;;7.40;1.90;;;;;;;13.22;75.62;101101.59;5100919;28;20023;-69
2022/11/01 05:42:38;;;;;;;13.40;2.90;;;;;;;13.16;75.70;101096.06;5099011;28;20016;-69
2022/11/01 05:45:04;;;;;;;23.27;2.17;;;;;;;13.18;74.53;101096.72;5108100;28;20047;-69
2022/11/01 05:47:32;;;;;;;8.98;2.63;;;;;;;13.16;74.25;101115.31;5104518;28;20497;-71
2022/11/01 05:49:57;;;;;;;11.73;2.13;;;;;;;13.08;74.66;101123.75;5108659;28;20102;-69
2022/11/01 05:52:22;;;;;;;16.80;2.80;;;;;;;13.04;74.38;101133.47;5095079;28;20126;-69
2022/11/01 05:54:48;;;;;;;17.90;2.77;;;;;;;13.00;73.97;101134.94;5112190;28;20032;-70
2022/11/01 05:57:13;;;;;;;14.97;2.83;;;;;;;13.03;72.86;101129.03;5110103;28;20375;-69
2022/11/01 05:59:38;;;;;;;13.93;2.00;;;;;;;12.97;73.56;101138.94;5099413;28;20480;-69
2022/11/01 06:02:03;;;;;;;22.20;2.50;;;;;;;12.98;73.45;101129.63;5107043;28;20027;-70
2022/11/01 06:04:29;;;;;;;15.87;2.83;;;;;;;12.88;74.11;101139.31;5098248;28;20111;-70
2022/11/01 06:06:54;;;;;;;17.97;3.03;;;;;;;12.84;73.65;101157.25;5109967;28;20042;-69
2022/11/01 06:09:19;;;;;;;13.17;2.53;;;;;;;12.86;73.44;101147.75;5094245;28;20032;-70
2022/11/01 06:11:45;;;;;;;13.27;2.97;;;;;;;12.86;73.34;101152.41;5112939;28;20039;-70
2022/11/01 06:14:10;;;;;;;13.83;2.50;;;;;;;12.87;73.24;101146.69;5100180;28;20073;-70
2022/11/01 06:16:36;;;;;;;15.77;2.60;;;;;;;12.83;73.38;101150.06;5091724;28;20024;-70
2022/11/01 06:19:01;;;;;;;10.50;2.30;;;;;;;12.85;73.68;101150.69;5094699;28;20028;-70
2022/11/01 06:21:27;;;;;;;24.67;3.90;;;;;;;12.82;73.88;101156.63;5106313;28;20211;-70
2022/11/01 06:23:52;;;;;;;12.27;2.50;;;;;;;12.76;74.07;101166.50;5094839;28;20035;-70
2022/11/01 06:26:18;;;;;;;11.03;2.57;;;;;;;12.76;73.53;101174.75;5101477;28;20066;-70
2022/11/01 06:28:44;;;;;;;17.27;3.10;;;;;;;12.78;73.82;101177.31;5110730;28;20035;-70
2022/11/01 06:31:09;;;;;;;14.70;3.60;;;;;;;12.75;74.10;101177.72;5100158;28;20036;-70
2022/11/01 06:33:35;;;;;;;18.80;3.23;;;;;;;12.72;74.05;101167.13;5107147;28;20145;-70
2022/11/01 06:36:01;;;;;;;12.20;2.83;;;;;;;12.67;74.42;101181.50;5105761;28;20076;-70
2022/11/01 06:38:27;;;;;;;16.95;2.97;;;;;;;12.64;74.56;101195.63;5100011;28;20074;-70
2022/11/01 06:40:52;;;;;;;19.80;2.70;;;;;;;12.61;74.94;101200.69;5075424;28;20063;-70
2022/11/01 06:43:17;;;;;;;15.48;2.88;;;;;;;12.71;74.62;101203.94;5102743;28;20050;-70
2022/11/01 06:45:43;;;;;;;17.67;3.63;;;;;;;12.72;74.50;101206.47;5110809;28;20028;-70
2022/11/01 06:48:08;;;;;;;12.70;2.33;;;;;;;12.62;75.17;101199.63;5104466;28;20084;-69
2022/11/01 06:50:33;;;;;;;26.13;2.87;;;;;;;12.48;76.02;101209.69;5108735;28;20019;-70
2022/11/01 06:52:59;;;;;;;17.43;2.97;;;;;;;12.46;76.31;101210.94;5097566;28;20028;-71
2022/11/01 06:55:26;;;;;;;21.40;3.50;;;;;;;12.55;75.62;101212.50;5100295;28;20028;-70
2022/11/01 06:57:53;;;;;;;;;;;;;;;12.60;76.01;101207.25;5100776;28;20110;-70
2022/11/01 07:00:19;;;;;;;17.80;2.65;;;;;;;12.58;75.57;101226.66;5079385;28;20323;-70
2022/11/01 07:02:44;;;;;;;28.57;3.93;;;;;;;12.63;75.51;101239.78;5101518;28;20060;-70
2022/11/01 07:05:09;;;;;;;19.83;3.33;;;;;;;12.62;76.18;101238.09;5105283;28;20389;-70
2022/11/01 07:07:34;;;;;;;21.37;3.57;;;;;;;12.67;75.84;101238.34;5101960;28;20503;-70
2022/11/01 07:10:00;;;;;;;19.93;3.00;;;;;;;12.63;75.94;101246.16;5107576;28;20107;-70
2022/11/01 07:12:25;;;;;;;15.93;2.77;;;;;;;12.65;76.08;101256.97;5086793;28;20093;-70
2022/11/01 07:14:50;;;;;;;15.03;3.13;;;;;;;12.63;76.38;101239.78;5109129;28;20028;-69
2022/11/01 07:17:15;;;;;;;21.77;2.78;;;;;;;12.70;76.11;101257.19;5107738;28;20024;-69
2022/11/01 07:19:41;;;;;;;24.30;2.93;;;;;;;12.62;76.35;101282.06;5100760;28;20431;-70
2022/11/01 07:22:07;;;;;;;17.27;2.67;;;;;;;12.66;76.26;101283.38;5083488;28;20019;-70
2022/11/01 07:24:32;;;;;;;22.80;2.85;;;;;;;12.67;76.86;101260.34;5108967;28;20030;-70
2022/11/01 07:26:57;;;;;;;19.70;3.97;;;;;;;12.71;76.50;101278.97;5106077;28;20031;-70
2022/11/01 07:29:23;;;;;;;14.65;2.50;;;;;;;12.73;76.80;101276.88;5102152;28;20055;-70
2022/11/01 07:31:48;;;;;;;13.13;3.43;;;;;;;12.65;77.52;101298.19;5102092;28;20020;-70
2022/11/01 07:34:13;;;;;;;25.08;3.33;;;;;;;12.66;77.10;101299.88;5101509;28;20029;-70
2022/11/01 07:36:38;;;;;;;18.33;2.40;;;;;;;12.68;77.80;101308.75;5080399;28;20024;-70
2022/11/01 07:39:04;;;;;;;23.13;2.93;;;;;;;12.67;77.32;101296.94;5088465;28;20150;-70
2022/11/01 07:41:29;;;;;;;22.30;2.53;;;;;;;12.66;77.48;101305.38;5095504;28;20039;-72
2022/11/01 07:43:55;;;;;;;19.63;2.40;;;;;;;12.72;77.01;101310.06;5094784;28;20467;-72
2022/11/01 07:46:20;;;;;;;12.60;3.13;;;;;;;12.71;77.28;101308.38;5088672;28;20036;-72
2022/11/01 07:48:45;;;;;;;20.33;3.03;;;;;;;12.70;77.89;101317.69;5097752;28;20026;-72
2022/11/01 07:51:11;;;;;;;17.30;3.73;;;;;;;12.75;77.78;101306.94;5100162;28;20112;-72
2022/11/01 07:53:36;;;;;;;21.20;4.67;;;;;;;12.71;78.02;101314.69;5090217;28;20040;-72
2022/11/01 07:56:01;;;;;;;22.43;3.50;;;;;;;12.80;76.88;101324.50;5094349;28;20043;-71
2022/11/01 07:58:27;;;;;;;20.70;4.00;;;;;;;12.81;77.75;101326.19;5090631;28;20034;-71
2022/11/01 08:00:52;;;;;;;14.60;2.47;;;;;;;12.84;77.04;101319.47;5085012;28;20031;-71
2022/11/01 08:03:18;;;;;;;21.40;2.60;;;;;;;12.83;76.65;101334.25;5078283;28;20080;-72
2022/11/01 08:05:45;;;;;;;28.10;3.07;;;;;;;12.82;77.56;101338.91;5105122;28;20071;-72
2022/11/01 08:08:11;;;;;;;16.52;3.17;;;;;;;12.77;77.74;101352.41;5075432;28;20039;-72
2022/11/01 08:10:37;;;;;;;22.60;3.55;;;;;;;12.84;77.00;101357.94;5101111;28;20032;-72
2022/11/01 08:13:05;;;;;;;25.77;2.85;;;;;;;12.79;77.16;101346.69;5108736;28;20031;-71
2022/11/01 08:15:31;;;;;;;24.55;3.05;;;;;;;12.76;77.66;101355.38;5106201;28;21953;-72
2022/11/01 08:17:57;;;;;;;18.90;2.63;;;;;;;12.81;77.11;101364.69;5094047;28;20031;-71
2022/11/01 08:20:24;;;;;;;15.93;2.93;;;;;;;12.88;76.83;101373.88;5091341;28;20734;-72
2022/11/01 08:22:49;;;;;;;;;;;;;;;12.91;76.95;101380.88;5096593;28;20074;-71
2022/11/01 08:25:14;;;;;;;16.43;2.37;;;;;;;12.90;76.67;101369.00;5070933;28;20325;-72
2022/11/01 08:27:39;;;;;;;14.27;2.53;;;;;;;12.91;76.63;101356.13;5101407;28;20279;-72
2022/11/01 08:30:05;;;;;;;24.20;2.90;;;;;;;12.92;76.61;101355.06;5089495;28;20090;-71
2022/11/01 08:32:31;;;;;;;20.23;3.30;;;;;;;12.93;76.58;101360.38;5101252;28;20027;-72
2022/11/01 08:34:56;;;;;;;20.83;2.40;;;;;;;12.95;76.92;101363.75;5093460;28;20059;-72
2022/11/01 08:37:22;;;;;;;16.73;2.83;;;;;;;12.97;76.79;101366.34;5095626;28;20032;-72
2022/11/01 08:39:47;;;;;;;26.10;3.65;;;;;;;13.01;77.26;101363.00;5096631;28;20036;-72
2022/11/01 08:42:13;;;;;;;19.07;3.97;;;;;;;13.06;76.91;101379.75;5081175;28;20042;-72
2022/11/01 08:44:38;;;;;;;20.17;4.03;;;;;;;13.15;76.36;101380.44;5095640;28;20051;-72
2022/11/01 08:47:04;;;;;;;17.03;2.97;;;;;;;13.19;76.51;101384.50;5101656;28;20058;-71
2022/11/01 08:49:29;;;;;;;20.00;3.27;;;;;;;13.28;76.23;101377.78;5072200;28;20110;-72
2022/11/01 08:51:54;;;;;;;25.07;3.20;;;;;;;13.31;76.68;101380.13;5100501;28;20027;-72
2022/11/01 08:54:20;;;;;;;19.07;2.57;;;;;;;13.30;76.73;101387.50;5110848;28;20070;-72
2022/11/01 08:56:45;;;;;;;19.00;3.53;;;;;;;13.36;76.47;101391.38;5108589;28;20024;-72
2022/11/01 08:59:10;;;;;;;22.50;3.53;;;;;;;13.44;76.81;101399.50;5106864;28;20024;-71
2022/11/01 09:01:37;;;;;;;29.23;4.33;;;;;;;13.52;77.48;101391.06;5110747;28;20394;-72
2022/11/01 09:04:02;;;;;;;20.48;3.75;;;;;;;13.55;76.22;101402.50;5110088;28;20031;-72
2022/11/01 09:06:28;;;;;;;23.57;2.77;;;;;;;13.56;76.09;101419.88;5087510;28;20069;-72
2022/11/01 09:08:54;;;;;;;19.33;2.67;;;;;;;13.65;76.22;101422.25;5111806;28;20450;-72
2022/11/01 09:11:22;;;;;;;15.80;2.65;;;;;;;13.71;75.72;101426.94;5110407;28;20034;-72
2022/11/01 09:13:48;;;;;;;23.33;4.32;;;;;;;13.74;75.27;101436.69;5093315;28;20035;-72
2022/11/01 09:16:14;;;;;;;20.08;3.17;;;;;;;13.72;75.54;101447.91;5109061;28;20063;-72
2022/11/01 09:18:40;;;;;;;27.07;3.40;;;;;;;13.78;75.41;101443.50;5106056;28;20081;-72
2022/11/01 09:21:06;;;;;;;15.45;2.83;;;;;;;13.81;74.89;101448.59;5098354;28;20374;-72
2022/11/01 09:23:33;;;;;;;15.43;2.50;;;;;;;13.81;74.67;101454.09;5110545;28;20110;-72
2022/11/01 09:26:06;;;;;;;21.17;2.97;;;;;;;13.83;75.45;101449.25;5106168;28;21910;-72
2022/11/01 09:28:32;;;;;;;18.83;2.63;;;;;;;13.82;74.57;101459.41;5100960;28;20047;-72
2022/11/01 09:31:05;;;;;;;20.13;3.88;;;;;;;13.82;75.35;101464.09;5077546;28;20058;-72
2022/11/01 09:33:31;;;;;;;19.05;3.35;;;;;;;13.97;74.11;101464.78;5108040;28;20039;-72
2022/11/01 09:35:57;;;;;;;14.53;3.00;;;;;;;14.12;74.59;101468.25;5098475;28;20046;-72
2022/11/01 09:38:23;;;;;;;25.35;2.97;;;;;;;14.30;72.95;101443.78;5099664;28;20560;-72
2022/11/01 09:41:01;;;;;;;34.73;3.13;;;;;;;14.29;73.14;101469.63;5112951;28;20039;-72
2022/11/01 09:43:31;;;;;;;14.98;2.97;;;;;;;14.39;72.34;101470.09;5076032;28;20024;-71
2022/11/01 09:45:58;;;;;;;18.42;3.33;;;;;;;14.43;72.41;101468.63;5092407;28;20039;-72
2022/11/01 09:48:26;;;;;;;16.73;3.63;;;;;;;14.55;72.55;101466.97;5105683;28;20061;-72
2022/11/01 09:50:52;;;;;;;16.13;2.67;;;;;;;14.58;72.55;101467.38;5094835;28;20123;-72
2022/11/01 09:53:23;;;;;;;25.53;3.43;;;;;;;14.47;72.83;101472.69;5102164;28;20039;-72
2022/11/01 09:55:56;;;;;;;15.85;2.78;;;;;;;14.48;72.52;101477.13;5110999;28;20088;-72
2022/11/01 09:58:21;;;;;;;19.25;3.17;;;;;;;14.75;72.02;101476.13;5112627;28;20027;-72
2022/11/01 10:01:14;;;;;;;24.13;3.57;;;;;;;14.87;71.57;101477.22;5094545;28;20530;-72
2022/11/01 10:04:07;;;;;;;12.75;2.85;;;;;;;14.85;71.39;101476.59;5093846;28;20107;-72
2022/11/01 10:06:38;;;;;;;22.35;3.25;;;;;;;15.07;71.79;101490.00;5092597;28;20043;-72
2022/11/01 10:09:29;;;;;;;14.63;2.83;;;;;;;15.27;70.64;101476.19;5092381;28;20043;-72
2022/11/01 10:12:17;;;;;;;25.17;3.55;;;;;;;15.27;70.17;101490.00;5092475;28;20102;-72
2022/11/01 10:14:48;;;;;;;24.27;3.33;;;;;;;15.20;70.60;101509.31;5092131;28;20058;-71
2022/11/01 10:17:16;;;;;;;11.98;2.50;;;;;;;15.29;70.24;101493.38;5091759;28;20031;-71
2022/11/01 10:19:46;;;;;;;18.85;3.40;;;;;;;15.26;69.76;101502.94;5092287;28;20038;-72
2022/11/01 10:22:16;;;;;;;16.77;3.08;;;;;;;15.30;69.19;101507.00;5092406;28;20039;-71
2022/11/01 10:24:56;;;;;;;16.95;2.75;;;;;;;15.46;70.19;101514.88;5092187;28;20047;-71
2022/11/01 10:27:45;;;;;;;12.93;3.30;;;;;;;15.65;69.33;101510.41;5073626;28;20036;-71
2022/11/01 10:30:17;;;;;;;15.80;3.63;;;;;;;15.65;69.01;101519.56;5091692;28;20089;-71
2022/11/01 10:32:56;;;;;;;16.13;2.70;;;;;;;15.68;68.62;101502.53;5100466;28;20503;-71
2022/11/01 10:35:31;;;;;;;20.88;3.03;;;;;;;15.87;69.28;101509.97;5111986;28;20028;-71
2022/11/01 10:38:05;;;;;;;12.10;2.95;;;;;;;16.01;68.72;101514.38;5111524;28;20036;-72
2022/11/01 10:40:38;;;;;;;19.70;2.60;;;;;;;15.93;68.19;101511.84;5112167;28;20390;-71
2022/11/01 10:43:12;;;;;;;16.90;3.20;;;;;;;15.94;67.66;101519.06;5112102;28;20084;-72
2022/11/01 10:45:38;;;;;;;16.70;2.40;;;;;;;15.85;67.42;101525.06;5112230;28;20414;-72
2022/11/01 10:48:04;;;;;;;12.18;3.08;;;;;;;15.96;67.91;101524.41;5111907;28;20038;-71
2022/11/01 10:50:29;;;;;;;17.07;2.00;;;;;;;15.89;67.14;101531.81;5111943;28;20023;-72
2022/11/01 10:53:01;;;;;;;14.50;2.33;;;;;;;16.01;67.13;101528.19;5112003;28;20042;-72
2022/11/01 10:55:45;;;;;;;14.93;2.55;;;;;;;16.08;67.25;101533.72;5111007;28;20039;-71
2022/11/01 10:58:29;;;;;;;15.02;2.47;;;;;;;16.17;66.92;101537.94;5093414;28;20028;-71
2022/11/01 11:00:54;;;;;;;19.15;3.30;;;;;;;16.20;66.62;101526.44;5111803;28;20103;-71
2022/11/01 11:03:27;;;;;;;10.83;2.57;;;;;;;16.10;66.76;101534.34;5093313;28;20165;-70
2022/11/01 11:05:55;;;;;;;11.90;2.15;;;;;;;16.08;66.52;101520.75;5111832;28;20032;-71
2022/11/01 11:08:23;;;;;;;12.15;2.78;;;;;;;15.94;67.46;101524.59;5111486;28;20403;-71
2022/11/01 11:10:49;;;;;;;14.23;2.72;;;;;;;16.16;66.91;101519.66;5111694;28;20026;-72
2022/11/01 11:13:19;;;;;;;15.32;3.45;;;;;;;16.36;66.51;101501.94;5110652;28;20130;-71
2022/11/01 11:15:49;;;;;;;19.42;3.40;;;;;;;16.40;66.10;101518.97;5110204;28;20395;-72
2022/11/01 11:18:20;;;;;;;15.63;3.03;;;;;;;16.37;65.84;101527.66;5111173;28;20027;-71
2022/11/01 11:20:50;;;;;;;15.00;2.92;;;;;;;16.36;65.96;101514.91;5093110;28;20032;-73
2022/11/01 11:23:19;;;;;;;19.92;3.03;;;;;;;16.18;66.17;101523.88;5111208;28;20030;-72
2022/11/01 11:25:44;;;;;;;10.88;2.13;;;;;;;16.15;65.10;101516.03;5111578;28;20028;-72
2022/11/01 11:28:21;;;;;;;19.20;2.67;;;;;;;16.33;65.66;101520.88;5092927;28;20393;-72
2022/11/01 11:30:46;;;;;;;9.60;1.90;;;;;;;16.49;65.88;101520.44;5110601;28;20538;-73
2022/11/01 11:33:16;;;;;;;22.70;3.00;;;;;;;16.27;65.35;101513.47;5098100;28;20127;-73